Time;durP1;ratioP1;P1;durP2;ratioP2;P2;SDS_P1;SDS_P2;PMS_P1;PMS_P2;Temp;Humidity;BMP_temperature;BMP_pressure;BME280_temperature;BME280_humidity;BME280_pressure;Samples;Min_cycle;Max_cycle;Signal;HPM_P1;HPM_P2
2021/04/18 00:00:23;;;;;;;;;;;;;;;3.30;100.00;101365.00;5093026;28;20314;-71
2021/04/18 00:02:49;;;;;;;;;;;;;;;3.29;100.00;101353.41;5093166;28;19963;-71
2021/04/18 00:05:16;;;;;;;;;;;;;;;3.26;100.00;101363.38;5092504;28;19960;-71
2021/04/18 00:07:41;;;;;;;;;;;;;;;3.20;100.00;101360.97;5093219;28;20384;-71
2021/04/18 00:10:08;;;;;;;;;;;;;;;3.18;100.00;101355.66;5093175;28;19938;-71
2021/04/18 00:12:35;;;;;;;;;;;;;;;3.20;100.00;101363.66;5074695;28;19928;-71
2021/04/18 00:15:01;;;;;;;;;;;;;;;3.25;100.00;101362.50;5092832;28;19931;-71
2021/04/18 00:17:27;;;;;;;;;;;;;;;3.22;100.00;101359.06;5092694;28;20314;-71
2021/04/18 00:19:52;;;;;;;;;;;;;;;3.20;100.00;101355.59;5074757;28;19925;-71
2021/04/18 00:22:18;;;;;;;;;;;;;;;3.25;100.00;101361.66;5074784;28;19924;-71
2021/04/18 00:24:44;;;;;;;;;;;;;;;3.26;100.00;101352.63;5092996;28;19931;-71
2021/04/18 00:27:10;;;;;;;;;;;;;;;3.23;100.00;101360.81;5074673;28;19924;-71
2021/04/18 00:29:36;;;;;;;;;;;;;;;3.25;100.00;101364.34;5092609;28;19963;-71
2021/04/18 00:32:03;;;;;;;;;;;;;;;3.24;100.00;101366.13;5092967;28;19981;-71
2021/04/18 00:34:28;;;;;;;;;;;;;;;3.27;100.00;101357.94;5092561;28;20380;-71
2021/04/18 00:36:54;;;;;;;;;;;;;;;3.30;100.00;101347.09;5092199;28;19924;-70
2021/04/18 00:39:20;;;;;;;;;;;;;;;3.34;100.00;101353.19;5092799;28;19925;-71
2021/04/18 00:41:46;;;;;;;;;;;;;;;3.38;100.00;101349.47;5074349;28;20086;-70
2021/04/18 00:44:12;;;;;;;;;;;;;;;3.44;100.00;101351.88;5091659;28;19974;-71
2021/04/18 00:46:39;;;;;;;;;;;;;;;3.50;100.00;101346.28;5092385;28;19928;-71
2021/04/18 00:49:05;;;;;;;;;;;;;;;3.50;100.00;101334.66;5092442;28;19932;-71
2021/04/18 00:51:32;;;;;;;;;;;;;;;3.51;100.00;101341.78;5092259;28;19960;-71
2021/04/18 00:53:58;;;;;;;;;;;;;;;3.55;100.00;101343.38;5073672;28;20390;-71
2021/04/18 00:56:24;;;;;;;;;;;;;;;3.61;100.00;101347.66;5073973;28;20065;-71
2021/04/18 00:58:50;;;;;;;;;;;;;;;3.64;100.00;101345.69;5092044;28;19925;-71
2021/04/18 01:01:16;;;;;;;;;;;;;;;3.74;100.00;101347.97;5092200;28;19924;-71
2021/04/18 01:03:43;;;;;;;;;;;;;;;3.82;100.00;101345.84;5073793;28;19977;-71
2021/04/18 01:06:09;;;;;;;;;;;;;;;3.91;100.00;101345.44;5074096;28;20307;-70
2021/04/18 01:08:43;;;;;;;;;;;;;;;4.00;100.00;101350.41;5092127;28;19939;-71
2021/04/18 01:11:09;;;;;;;;;;;;;;;4.09;100.00;101356.31;5091930;28;19924;-71
2021/04/18 01:13:35;;;;;;;;;;;;;;;4.14;100.00;101357.88;5091696;28;19924;-70
2021/04/18 01:16:01;;;;;;;;;;;;;;;4.19;100.00;101363.91;5073687;28;19947;-71
2021/04/18 01:18:27;;;;;;;;;;;;;;;4.25;100.00;101361.88;5091992;28;19970;-70
2021/04/18 01:21:07;;;;;;;;;;;;;;;4.27;100.00;101362.69;5092410;28;19934;-70
2021/04/18 01:23:56;;;;;;;;;;;;;;;4.31;100.00;101364.31;5084444;28;20407;-71
2021/04/18 01:26:29;;;;;;;;;;;;;;;4.31;100.00;101351.72;5092892;28;20325;-70
2021/04/18 01:28:57;;;;;;;;;;;;;;;4.38;100.00;101354.16;5092320;28;19924;-70
2021/04/18 01:31:22;;;;;;;;;;;;;;;4.37;100.00;101353.28;5074409;28;19976;-70
2021/04/18 01:33:49;;;;;;;;;;;;;;;4.38;100.00;101354.16;5091937;28;19931;-70
2021/04/18 01:36:15;;;;;;;;;;;;;;;4.36;100.00;101356.91;5092212;28;19924;-70
2021/04/18 01:38:41;;;;;;;;;;;;;;;4.34;100.00;101351.63;5092662;28;20006;-70
2021/04/18 01:41:08;;;;;;;;;;;;;;;4.32;100.00;101352.63;5092764;28;20280;-71
2021/04/18 01:43:34;;;;;;;;;;;;;;;4.34;100.00;101348.03;5073836;28;19924;-71
2021/04/18 01:46:00;;;;;;;;;;;;;;;4.38;100.00;101349.63;5091138;28;19924;-71
2021/04/18 01:48:26;;;;;;;;;;;;;;;4.38;100.00;101354.16;5073579;28;19946;-71
2021/04/18 01:50:54;;;;;;;;;;;;;;;4.39;100.00;101351.38;5091239;28;20014;-72
2021/04/18 01:53:23;;;;;;;;;;;;;;;4.40;100.00;101353.16;5073347;28;20324;-71
2021/04/18 01:55:52;;;;;;;;;;;;;;;4.44;100.00;101354.75;5072765;28;19924;-71
2021/04/18 01:58:19;;;;;;;;;;;;;;;4.46;100.00;101347.50;5073445;28;19924;-71
2021/04/18 02:01:05;;;;;;;;;;;;;;;4.45;100.00;101351.13;5090745;28;20027;-71
2021/04/18 02:03:33;;;;;;;;;;;;;;;4.47;100.00;101348.34;5091179;28;19924;-71
2021/04/18 02:05:59;;;;;;;;;;;;;;;4.49;100.00;101352.72;5072288;28;19928;-71
2021/04/18 02:08:29;;;;;;;;;;;;;;;4.49;100.00;101351.84;5073289;28;19924;-71
2021/04/18 02:10:57;;;;;;;;;;;;;;;4.52;100.00;101351.72;5073144;28;19966;-71
2021/04/18 02:13:25;;;;;;;;;;;;;;;4.52;100.00;101336.44;5091117;28;19928;-71
2021/04/18 02:16:20;;;;;;;;;;;;;;;4.55;100.00;101346.19;5035809;28;19971;-71
2021/04/18 02:18:59;;;;;;;;;;;;;;;4.58;100.00;101355.94;5073124;28;19924;-71
2021/04/18 02:21:28;;;;;;;;;;;;;;;4.54;100.00;101352.50;5090618;28;19950;-71
2021/04/18 02:23:55;;;;;;;;;;;;;;;4.52;100.00;101355.25;5091016;28;19943;-71
2021/04/18 02:26:21;;;;;;;;;;;;;;;4.48;100.00;101360.88;5090841;28;19931;-71
2021/04/18 02:28:49;;;;;;;;;;;;;;;4.50;100.00;101358.97;5073033;28;19924;-71
2021/04/18 02:31:17;;;;;;;;;;;;;;;4.48;100.00;101366.25;5056005;28;20303;-71
2021/04/18 02:33:44;;;;;;;;;;;;;;;4.52;100.00;101363.34;5072829;28;20027;-71
2021/04/18 02:36:10;;;;;;;;;;;;;;;4.51;100.00;101371.47;5090496;28;19924;-71
2021/04/18 02:38:38;;;;;;;;;;;;;;;4.55;100.00;101365.00;5090719;28;19924;-71
2021/04/18 02:41:06;;;;;;;;;;;;;;;4.53;100.00;101364.22;5072768;28;20383;-71
2021/04/18 02:43:32;;;;;;;;;;;;;;;4.53;100.00;101375.84;5072787;28;19924;-71
2021/04/18 02:45:58;;;;;;;;;;;;;;;4.50;100.00;101365.22;5072037;28;19931;-71
2021/04/18 02:48:25;;;;;;;;;;;;;;;4.49;100.00;101374.22;5091120;28;19925;-71
2021/04/18 02:50:51;;;;;;;;;;;;;;;4.45;100.00;101375.31;5090835;28;19924;-71
2021/04/18 02:53:17;;;;;;;;;;;;;;;4.46;100.00;101374.38;5072833;28;20019;-71
2021/04/18 02:55:43;;;;;;;;;;;;;;;4.47;100.00;101365.34;5090020;28;19931;-71
2021/04/18 02:58:22;;;;;;;;;;;;;;;4.48;100.00;101366.25;5072967;28;19924;-71
2021/04/18 03:00:51;;;;;;;;;;;;;;;4.50;100.00;101356.28;5072494;28;19928;-71
2021/04/18 03:03:17;;;;;;;;;;;;;;;4.49;100.00;101352.72;5072766;28;19969;-71
2021/04/18 03:05:44;;;;;;;;;;;;;;;4.38;100.00;101349.63;5090328;28;19925;-71
2021/04/18 03:08:10;;;;;;;;;;;;;;;4.33;100.00;101341.78;5092935;28;20410;-71
2021/04/18 03:10:37;;;;;;;;;;;;;;;4.34;100.00;101350.72;5076304;28;20006;-72
2021/04/18 03:13:05;;;;;;;;;;;;;;;4.36;100.00;101351.53;5076106;28;19924;-71
2021/04/18 03:15:34;;;;;;;;;;;;;;;4.39;100.00;101348.69;5075603;28;20390;-71
2021/04/18 03:18:05;;;;;;;;;;;;;;;4.40;100.00;101345.06;5076102;28;19963;-71
2021/04/18 03:20:31;;;;;;;;;;;;;;;4.45;100.00;101344.84;5076243;28;19928;-71
2021/04/18 03:22:59;;;;;;;;;;;;;;;4.46;100.00;101347.50;5075825;28;20048;-71
2021/04/18 03:25:25;;;;;;;;;;;;;;;4.43;100.00;101353.00;5075780;28;20009;-71
2021/04/18 03:27:52;;;;;;;;;;;;;;;4.43;100.00;101353.00;5094096;28;19963;-71
2021/04/18 03:30:27;;;;;;;;;;;;;;;4.45;100.00;101348.44;5075846;28;19924;-71
2021/04/18 03:32:58;;;;;;;;;;;;;;;4.48;100.00;101344.75;5075288;28;20493;-71
2021/04/18 03:35:24;;;;;;;;;;;;;;;4.46;100.00;101355.56;5075515;28;19928;-71
2021/04/18 03:37:52;;;;;;;;;;;;;;;4.49;100.00;101358.09;5075776;28;19973;-71
2021/04/18 03:40:18;;;;;;;;;;;;;;;4.50;100.00;101348.22;5093815;28;19928;-71
2021/04/18 03:42:47;;;;;;;;;;;;;;;4.53;100.00;101348.94;5075491;28;20303;-71
2021/04/18 03:45:14;;;;;;;;;;;;;;;4.58;100.00;101358.63;5074860;28;19924;-71
2021/04/18 03:47:44;;;;;;;;;;;;;;;4.61;100.00;101353.97;5093632;28;19924;-71
2021/04/18 03:50:12;;;;;;;;;;;;;;;4.63;100.00;101345.84;5075470;28;20004;-71
2021/04/18 03:52:56;;;;;;;;;;;;;;;4.59;100.00;101353.16;5093059;28;20018;-70
2021/04/18 03:55:24;;;;;;;;;;;;;;;4.61;100.00;101340.53;5093225;28;19928;-71
2021/04/18 03:57:53;;;;;;;;;;;;;;;4.61;100.00;101340.53;5075153;28;19925;-71
2021/04/18 04:00:22;;;;;;;;;;;;;;;4.58;100.00;101351.41;5074828;28;21281;-71
2021/04/18 04:02:57;;;;;;;;;;;;;;;4.59;100.00;101353.16;5074800;28;20041;-71
2021/04/18 04:05:24;;;;;;;;;;;;;;;4.61;100.00;101350.41;5075046;28;19931;-71
2021/04/18 04:07:51;;;;;;;;;;;;;;;4.64;100.00;101339.53;5075230;28;19928;-71
2021/04/18 04:10:18;;;;;;;;;;;;;;;4.69;100.00;101341.03;5058053;28;19924;-71
2021/04/18 04:12:48;;;;;;;;;;;;;;;4.74;100.00;101348.88;5075924;28;19987;-71
2021/04/18 04:15:15;;;;;;;;;;;;;;;4.78;100.00;101334.34;5075224;28;19924;-70
2021/04/18 04:17:43;;;;;;;;;;;;;;;4.79;100.00;101335.22;5075002;28;20015;-71
2021/04/18 04:20:18;;;;;;;;;;;;;;;4.86;100.00;101340.25;5093148;28;19924;-71
2021/04/18 04:23:10;;;;;;;;;;;;;;;4.81;100.00;101339.59;5089601;28;20280;-71
2021/04/18 04:25:36;;;;;;;;;;;;;;;4.84;100.00;101335.91;5074558;28;20023;-70
2021/04/18 04:28:02;;;;;;;;;;;;;;;4.84;100.00;101338.59;5092880;28;19932;-71
2021/04/18 04:30:28;;;;;;;;;;;;;;;4.82;100.00;101351.22;5092553;28;19924;-71
2021/04/18 04:32:54;;;;;;;;;;;;;;;4.78;100.00;101350.47;5092573;28;19928;-71
2021/04/18 04:35:20;;;;;;;;;;;;;;;4.81;100.00;101344.97;5092570;28;19935;-70
2021/04/18 04:37:46;;;;;;;;;;;;;;;4.84;100.00;101347.50;5092876;28;20422;-71
2021/04/18 04:40:13;;;;;;;;;;;;;;;4.87;100.00;101338.44;5092616;28;20375;-71
2021/04/18 04:42:39;;;;;;;;;;;;;;;4.84;100.00;101344.81;5092414;28;19960;-71
2021/04/18 04:45:05;;;;;;;;;;;;;;;4.86;100.00;101339.38;5092297;28;19937;-71
2021/04/18 04:47:31;;;;;;;;;;;;;;;4.85;100.00;101348.38;5074482;28;19924;-71
2021/04/18 04:49:57;;;;;;;;;;;;;;;4.82;100.00;101344.03;5091983;28;20159;-71
2021/04/18 04:52:23;;;;;;;;;;;;;;;4.88;100.00;101345.56;5091565;28;19924;-70
2021/04/18 04:54:48;;;;;;;;;;;;;;;4.94;100.00;101342.56;5074024;28;19974;-71
2021/04/18 04:57:15;;;;;;;;;;;;;;;4.97;100.00;101349.63;5091962;28;19935;-71
2021/04/18 04:59:41;;;;;;;;;;;;;;;4.97;100.00;101355.00;5092097;28;19925;-71
2021/04/18 05:02:07;;;;;;;;;;;;;;;4.96;100.00;101355.97;5092201;28;19924;-71
2021/04/18 05:04:33;;;;;;;;;;;;;;;4.93;100.00;101350.72;5092146;28;20007;-71
2021/04/18 05:06:59;;;;;;;;;;;;;;;4.91;100.00;101348.09;5091893;28;20433;-71
2021/04/18 05:09:25;;;;;;;;;;;;;;;4.92;100.00;101338.19;5093557;28;19928;-71
2021/04/18 05:11:51;;;;;;;;;;;;;;;4.94;100.00;101330.94;5096696;28;19931;-71
2021/04/18 05:14:18;;;;;;;;;;;;;;;4.96;100.00;101339.81;5096502;28;19977;-71
2021/04/18 05:16:43;;;;;;;;;;;;;;;4.96;100.00;101342.50;5092960;28;19923;-71
2021/04/18 05:19:09;;;;;;;;;;;;;;;4.96;100.00;101350.59;5092113;28;20395;-71
2021/04/18 05:21:35;;;;;;;;;;;;;;;4.96;100.00;101347.91;5091023;28;19935;-71
2021/04/18 05:24:01;;;;;;;;;;;;;;;4.96;100.00;101346.06;5091044;28;19928;-71
2021/04/18 05:26:27;;;;;;;;;;;;;;;4.98;100.00;101344.19;5091344;28;20312;-71
2021/04/18 05:28:54;;;;;;;;;;;;;;;4.99;100.00;101351.28;5091429;28;19924;-71
2021/04/18 05:31:21;;;;;;;;;;;;;;;4.97;100.00;101363.06;5073095;28;19924;-70
2021/04/18 05:33:47;;;;;;;;;;;;;;;4.97;100.00;101358.56;5091003;28;19963;-71
2021/04/18 05:36:12;;;;;;;;;;;;;;;4.99;100.00;101358.50;5091433;28;20383;-71
2021/04/18 05:38:38;;;;;;;;;;;;;;;5.08;100.00;101363.44;5091514;28;19969;-72
2021/04/18 05:41:04;;;;;;;;;;;;;;;5.08;100.00;101357.16;5073414;28;19935;-71
2021/04/18 05:43:30;;;;;;;;;;;;;;;5.09;100.00;101359.81;5090920;28;19938;-71
2021/04/18 05:45:56;;;;;;;;;;;;;;;5.11;100.00;101357.91;5090808;28;20022;-71
2021/04/18 05:48:22;;;;;;;;;;;;;;;5.13;100.00;101358.72;5091112;28;20141;-71
2021/04/18 05:50:48;;;;;;;;;;;;;;;5.17;100.00;101367.50;5091218;28;19924;-71
2021/04/18 05:53:14;;;;;;;;;;;;;;;5.22;100.00;101367.28;5089938;28;19932;-71
2021/04/18 05:55:40;;;;;;;;;;;;;;;5.23;100.00;101369.91;5090876;28;19924;-71
2021/04/18 05:58:06;;;;;;;;;;;;;;;5.24;100.00;101374.34;5072909;28;19950;-71
2021/04/18 06:00:32;;;;;;;;;;;;;;;5.27;100.00;101374.19;5091058;28;19944;-71
2021/04/18 06:02:58;;;;;;;;;;;;;;;5.23;100.00;101374.41;5090913;28;20406;-72
2021/04/18 06:05:25;;;;;;;;;;;;;;;5.23;100.00;101391.44;5090482;28;19924;-71
2021/04/18 06:07:50;;;;;;;;;;;;;;;5.17;100.00;101387.22;5090297;28;19960;-71
2021/04/18 06:10:16;;;;;;;;;;;;;;;5.14;100.00;101387.34;5090868;28;19931;-71
2021/04/18 06:12:42;;;;;;;;;;;;;;;5.15;100.00;101378.34;5090755;28;20379;-72
2021/04/18 06:15:09;;;;;;;;;;;;;;;5.12;100.00;101383.00;5090200;28;20294;-72
2021/04/18 06:17:35;;;;;;;;;;;;;;;5.12;100.00;101389.25;5090327;28;19932;-71
2021/04/18 06:20:01;;;;;;;;;;;;;;;5.17;100.00;101386.34;5091276;28;20033;-71
2021/04/18 06:22:27;;;;;;;;;;;;;;;5.23;100.00;101390.56;5090145;28;19924;-71
2021/04/18 06:24:53;;;;;;;;;;;;;;;5.28;100.00;101384.00;5090841;28;19931;-71
2021/04/18 06:27:19;;;;;;;;;;;;;;;5.29;100.00;101380.38;5090457;28;19963;-71
2021/04/18 06:29:45;;;;;;;;;;;;;;;5.27;100.00;101386.78;5090437;28;19928;-71
2021/04/18 06:32:11;;;;;;;;;;;;;;;5.31;100.00;101375.78;5090624;28;19924;-71
2021/04/18 06:34:37;;;;;;;;;;;;;;;5.40;100.00;101368.19;5090924;28;19924;-71
2021/04/18 06:37:03;;;;;;;;;;;;;;;5.41;100.00;101375.31;5090511;28;20383;-71
2021/04/18 06:39:30;;;;;;;;;;;;;;;5.45;100.00;101377.81;5091028;28;19956;-71
2021/04/18 06:41:58;;;;;;;;;;;;;;;5.44;100.00;101386.81;5090407;28;19971;-71
2021/04/18 06:44:24;;;;;;;;;;;;;;;5.43;100.00;101390.47;5094287;28;20036;-70
2021/04/18 06:46:50;;;;;;;;;;;;;;;5.43;100.00;101387.78;5094449;28;19928;-71
2021/04/18 06:49:16;;;;;;;;;;;;;;;5.42;100.00;101386.00;5094703;28;19997;-71
2021/04/18 06:51:43;;;;;;;;;;;;;;;5.41;100.00;101389.69;5091625;28;19928;-71
2021/04/18 06:54:10;;;;;;;;;;;;;;;5.43;100.00;101378.84;5090061;28;19924;-71
2021/04/18 06:56:36;;;;;;;;;;;;;;;5.47;100.00;101381.28;5093671;28;19973;-71
2021/04/18 06:59:03;;;;;;;;;;;;;;;5.45;100.00;101379.59;5075933;28;19928;-71
2021/04/18 07:01:29;;;;;;;;;;;;;;;5.42;100.00;101366.31;5093136;28;19930;-71
2021/04/18 07:04:08;;;;;;;;;;;;;;;5.47;100.00;101375.03;5092750;28;20373;-71
2021/04/18 07:06:37;;;;;;;;;;;;;;;5.45;100.00;101372.44;5088326;28;19924;-70
2021/04/18 07:09:03;;;;;;;;;;;;;;;5.43;100.00;101365.38;5094099;28;19935;-71
2021/04/18 07:11:41;;;;;;;;;;;;;;;5.48;100.00;101372.25;5093907;28;19924;-71
2021/04/18 07:14:18;;;;;;;;;;;;;;;5.57;100.00;101367.34;5093686;28;19931;-71
2021/04/18 07:16:43;;;;;;;;;;;;;;;5.61;100.00;101368.94;5091224;28;19924;-71
2021/04/18 07:19:17;;;;;;;;;;;;;;;5.65;100.00;101362.47;5092892;28;19967;-71
2021/04/18 07:21:44;;;;;;;;;;;;;;;5.69;100.00;101362.25;5093816;28;20627;-71
2021/04/18 07:24:10;;;;;;;;;;;;;;;5.69;100.00;101350.56;5094065;28;19931;-71
2021/04/18 07:26:36;;;;;;;;;;;;;;;5.71;100.00;101362.16;5074203;28;19968;-71
2021/04/18 07:29:12;;;;;;;;;;;;;;;5.71;100.00;101364.84;5073269;28;19924;-71
2021/04/18 07:31:38;;;;;;;;;;;;;;;5.74;100.00;101364.69;5073706;28;19925;-72
2021/04/18 07:34:05;;;;;;;;;;;;;;;5.72;100.00;101374.69;5073964;28;20029;-72
2021/04/18 07:36:31;;;;;;;;;;;;;;;5.69;100.00;101364.03;5074050;28;19924;-72
2021/04/18 07:38:57;;;;;;;;;;;;;;;5.69;100.00;101364.03;5093596;28;20405;-72
2021/04/18 07:41:23;;;;;;;;;;;;;;;5.72;100.00;101366.59;5093373;28;19935;-71
2021/04/18 07:43:49;;;;;;;;;;;;;;;5.82;100.00;101375.06;5075088;28;20410;-71
2021/04/18 07:46:17;;;;;;;;;;;;;;;5.82;100.00;101367.00;5075529;28;19927;-71
2021/04/18 07:48:43;;;;;;;;;;;;;;;5.79;100.00;101373.41;5093323;28;19935;-71
2021/04/18 07:51:09;;;;;;;;;;;;;;;5.72;100.00;101381.88;5093559;28;19924;-71
2021/04/18 07:53:35;;;;;;;;;;;;;;;5.72;100.00;101381.88;5092593;28;19924;-71
2021/04/18 07:56:01;;;;;;;;;;;;;;;5.65;100.00;101365.16;5086975;28;19924;-70
2021/04/18 07:58:27;;;;;;;;;;;;;;;5.68;100.00;101367.72;5073449;28;20468;-71
2021/04/18 08:00:55;;;;;;;;;;;;;;;5.69;100.00;101385.59;5072772;28;19929;-71
2021/04/18 08:03:22;;;;;;;;;;;;;;;5.73;100.00;101379.09;5073234;28;19924;-71
2021/04/18 08:05:48;;;;;;;;;;;;;;;5.81;100.00;101376.91;5072515;28;19924;-71
2021/04/18 08:08:15;;;;;;;;;;;;;;;5.85;100.00;101373.09;5085349;28;19924;-72
2021/04/18 08:10:42;;;;;;;;;;;;;;;6.00;100.00;101373.31;5093588;28;19928;-72
2021/04/18 08:13:09;;;;;;;;;;;;;;;6.14;100.00;101368.03;5092559;28;19946;-71
2021/04/18 08:15:35;;;;;;;;;;;;;;;6.23;100.00;101373.91;5092942;28;19932;-72
2021/04/18 08:18:02;;;;;;;;;;;;;;;6.35;100.00;101370.56;5092802;28;20382;-72
2021/04/18 08:20:31;;;;;;;;;;;;;;;6.51;100.00;101368.78;5092970;28;19931;-71
2021/04/18 08:23:01;;;;;;;;;;;;;;;6.57;100.00;101359.50;5092745;28;19928;-72
2021/04/18 08:25:27;;;;;;;;;;;;;;;6.75;100.00;101368.41;5092281;28;19928;-72
2021/04/18 08:28:00;;;;;;;;;;;;;;;6.98;100.00;101361.72;5092771;28;20014;-71
2021/04/18 08:30:27;;;;;;;;;;;;;;;7.18;100.00;101359.75;5092318;28;20370;-71
2021/04/18 08:32:54;;;;;;;;;;;;;;;7.25;100.00;101350.31;5092492;28;19924;-71
2021/04/18 08:35:21;;;;;;;;;;;;;;;7.15;100.00;101347.28;5092668;28;19928;-71
2021/04/18 08:38:15;;;;;;;;;;;;;;;7.22;100.00;101346.94;5092229;28;19924;-71
2021/04/18 08:40:41;;;;;;;;;;;;;;;7.14;100.00;101355.47;5093472;28;19924;-71
2021/04/18 08:43:17;;;;;;;;;;;;;;;7.17;100.00;101356.16;5092839;28;19928;-72
2021/04/18 08:45:47;;;;;;;;;;;;;;;7.25;100.00;101354.88;5092076;28;19924;-72
2021/04/18 08:48:13;;;;;;;;;;;;;;;7.25;100.00;101355.72;5092085;28;19924;-72
2021/04/18 08:50:50;;;;;;;;;;;;;;;7.31;100.00;101343.69;5092491;28;19924;-72
2021/04/18 08:53:17;;;;;;;;;;;;;;;7.26;100.00;101353.91;5074368;28;19931;-71
2021/04/18 08:55:51;;;;;;;;;;;;;;;7.31;100.00;101359.91;5091894;28;19996;-72
2021/04/18 08:58:28;;;;;;;;;;;;;;;7.26;100.00;101338.56;5092493;28;20337;-71
2021/04/18 09:01:02;;;;;;;;;;;;;;;7.22;100.00;101350.50;5092037;28;20361;-71
2021/04/18 09:03:27;;;;;;;;;;;;;;;7.27;100.00;101356.53;5092262;28;20406;-72
2021/04/18 09:06:00;;;;;;;;;;;;;;;7.25;100.00;101360.28;5090702;28;19924;-71
2021/04/18 09:08:27;;;;;;;;;;;;;;;7.08;100.00;101362.09;5092098;28;19931;-73
2021/04/18 09:11:01;;;;;;;;;;;;;;;7.04;100.00;101364.09;5091012;28;19924;-71
2021/04/18 09:13:27;;;;;;;;;;;;;;;6.96;100.00;101350.16;5091007;28;19976;-71
2021/04/18 09:15:53;;;;;;;;;;;;;;;7.00;100.00;101340.94;5090596;28;20327;-71
2021/04/18 09:18:21;;;;;;;;;;;;;;;6.98;100.00;101332.03;5091028;28;19924;-71
2021/04/18 09:21:07;;;;;;;;;;;;;;;6.97;100.00;101324.03;5090986;28;19924;-71
2021/04/18 09:23:54;;;;;;;;;;;;;;;6.89;100.00;101310.09;5081611;28;19946;-71
2021/04/18 09:26:20;;;;;;;;;;;;;;;7.06;100.00;101312.72;5088127;28;20403;-71
2021/04/18 09:29:00;;;;;;;;;;;;;;;7.44;100.00;101306.94;5091667;28;19928;-71
2021/04/18 09:31:26;;;;;;;;;;;;;;;7.62;100.00;101307.66;5091003;28;19924;-71
2021/04/18 09:34:00;;;;;;;;;;;;;;;8.05;100.00;101296.94;5090980;28;19976;-72
2021/04/18 09:36:26;;;;;;;;;;;;;;;8.49;100.00;101289.75;5073339;28;19967;-72
2021/04/18 09:38:53;;;;;;;;;;;;;;;8.61;100.00;101298.94;5073380;28;19924;-72
2021/04/18 09:41:19;;;;;;;;;;;;;;;8.68;100.00;101302.09;5091179;28;19924;-72
2021/04/18 09:43:45;;;;;;;;;;;;;;;8.91;100.00;101306.03;5072897;28;20417;-71
2021/04/18 09:46:11;;;;;;;;;;;;;;;9.26;100.00;101310.09;5091428;28;19924;-71
2021/04/18 09:48:36;;;;;;;;;;;;;;;9.57;100.00;101308.03;5091524;28;19924;-71
2021/04/18 09:51:04;;;;;;;;;;;;;;;9.84;100.00;101299.88;5091266;28;19924;-71
2021/04/18 09:53:30;;;;;;;;;;;;;;;9.92;100.00;101296.63;5091341;28;19959;-73
2021/04/18 09:55:58;;;;;;;;;;;;;;;10.06;100.00;101301.94;5090929;28;19932;-71
2021/04/18 09:58:25;;;;;;;;;;;;;;;10.07;100.00;101295.53;5091282;28;19924;-72
2021/04/18 10:00:51;;;;;;;;;;;;;;;10.22;100.00;101294.47;5091116;28;19931;-71
2021/04/18 10:03:17;;;;;;;;;;;;;;;10.25;100.00;101298.81;5091398;28;20306;-72
2021/04/18 10:06:06;;;;;;;;;;;;;;;10.43;100.00;101291.22;5090971;28;20387;-71
2021/04/18 10:08:34;;;;;;;;;;;;;;;10.69;100.00;101283.06;5075933;28;19970;-71
2021/04/18 10:11:15;;;;;;;;;;;;;;;10.71;100.00;101289.25;5091033;28;19963;-72
2021/04/18 10:13:43;;;;;;;;;;;;;;;10.77;100.00;101291.53;5090686;28;19959;-72
2021/04/18 10:16:10;;;;;;;;;;;;;;;10.82;100.00;101293.88;5073403;28;19924;-72
2021/04/18 10:18:38;;;;;;;;;;;;;;;10.94;100.00;101294.84;5095165;28;19934;-71
2021/04/18 10:21:13;;;;;;;;;;;;;;;11.02;100.00;101287.88;5077109;28;20356;-71
2021/04/18 10:23:39;;;;;;;;;;;;;;;11.29;100.00;101283.19;5094772;28;20264;-71
2021/04/18 10:26:05;;;;;;;;;;;;;;;11.57;100.00;101279.22;5094930;28;19939;-71
2021/04/18 10:28:31;;;;;;;;;;;;;;;11.94;100.00;101283.69;5095374;28;19928;-71
2021/04/18 10:30:57;;;;;;;;;;;;;;;12.08;100.00;101286.22;5094827;28;19924;-71
2021/04/18 10:33:23;;;;;;;;;;;;;;;12.80;100.00;101289.56;5094614;28;19924;-70
2021/04/18 10:35:49;;;;;;;;;;;;;;;12.88;100.00;101278.91;5094367;28;19924;-71
2021/04/18 10:38:15;;;;;;;;;;;;;;;13.26;100.00;101282.19;5076870;28;20023;-71
2021/04/18 10:40:41;;;;;;;;;;;;;;;13.34;100.00;101274.22;5094224;28;19978;-71
2021/04/18 10:43:09;;;;;;;;;;;;;;;13.14;100.00;101287.66;5093593;28;19932;-71
2021/04/18 10:45:35;;;;;;;;;;;;;;;12.83;100.00;101283.91;5090815;28;20122;-71
2021/04/18 10:48:02;;;;;;;;;;;;;;;12.68;100.00;101277.81;5094275;28;19928;-70
2021/04/18 10:50:28;;;;;;;;;;;;;;;13.15;100.00;101275.75;5094518;28;20028;-71
2021/04/18 10:52:54;;;;;;;;;;;;;;;13.23;100.00;101272.41;5075911;28;20360;-71
2021/04/18 10:55:19;;;;;;;;;;;;;;;12.90;100.00;101275.06;5094429;28;20450;-70
2021/04/18 10:57:45;;;;;;;;;;;;;;;13.02;100.00;101275.06;5094286;28;20427;-70
2021/04/18 11:00:12;;;;;;;;;;;;;;;12.80;100.00;101276.84;5094669;28;20398;-70
2021/04/18 11:02:37;;;;;;;;;;;;;;;13.19;100.00;101279.13;5093674;28;19924;-71
2021/04/18 11:05:05;;;;;;;;;;;;;;;13.06;100.00;101282.84;5094165;28;20005;-70
2021/04/18 11:07:31;;;;;;;;;;;;;;;13.00;100.00;101283.38;5093915;28;19924;-73
2021/04/18 11:09:57;;;;;;;;;;;;;;;13.49;100.00;101272.94;5094375;28;20409;-70
2021/04/18 11:12:22;;;;;;;;;;;;;;;13.84;100.00;101282.72;5093765;28;19932;-70
2021/04/18 11:14:48;;;;;;;;;;;;;;;14.08;100.00;101267.91;5094273;28;19928;-70
2021/04/18 11:17:14;;;;;;;;;;;;;;;14.52;100.00;101268.59;5093922;28;20447;-71
2021/04/18 11:19:40;;;;;;;;;;;;;;;13.98;100.00;101267.00;5094276;28;19924;-70
2021/04/18 11:22:07;;;;;;;;;;;;;;;13.72;100.00;101272.84;5093846;28;19928;-71
2021/04/18 11:24:33;;;;;;;;;;;;;;;13.28;100.00;101274.72;5093909;28;19971;-72
2021/04/18 11:26:58;;;;;;;;;;;;;;;12.96;100.00;101283.72;5093447;28;19931;-70
2021/04/18 11:29:24;;;;;;;;;;;;;;;12.95;100.00;101276.53;5092924;28;19977;-70
2021/04/18 11:31:50;;;;;;;;;;;;;;;13.19;100.00;101276.38;5093909;28;20367;-71
2021/04/18 11:34:16;;;;;;;;;;;;;;;13.90;100.00;101273.97;5093641;28;19924;-71
2021/04/18 11:36:42;;;;;;;;;;;;;;;14.29;100.00;101269.75;5075118;28;20302;-71
2021/04/18 11:39:08;;;;;;;;;;;;;;;14.34;100.00;101268.34;5093602;28;19956;-70
2021/04/18 11:41:35;;;;;;;;;;;;;;;14.31;100.00;101262.28;5075436;28;19924;-70
2021/04/18 11:44:01;;;;;;;;;;;;;;;14.49;100.00;101257.91;5093062;28;20311;-70
2021/04/18 11:46:27;;;;;;;;;;;;;;;14.75;100.00;101251.13;5093432;28;19924;-70
2021/04/18 11:48:53;;;;;;;;;;;;;;;15.49;100.00;101255.28;5093187;28;19982;-70
2021/04/18 11:51:19;;;;;;;;;;;;;;;16.48;100.00;101244.00;5075325;28;19924;-70
2021/04/18 11:53:45;;;;;;;;;;;;;;;16.73;100.00;101247.94;5093400;28;20358;-71
2021/04/18 11:56:11;;;;;;;;;;;;;;;17.30;100.00;101244.13;5092927;28;20011;-70
2021/04/18 11:58:37;;;;;;;;;;;;;;;16.95;100.00;101251.28;5093511;28;19967;-70
2021/04/18 12:01:03;;;;;;;;;;;;;;;16.94;100.00;101260.53;5092653;28;21217;-70
2021/04/18 12:03:29;;;;;;;;;;;;;;;16.46;100.00;101248.78;5093043;28;19931;-70
2021/04/18 12:05:56;;;;;;;;;;;;;;;16.43;100.00;101245.47;5092423;28;19977;-70
2021/04/18 12:08:21;;;;;;;;;;;;;;;15.68;100.00;101240.72;5093225;28;20340;-70
2021/04/18 12:10:47;;;;;;;;;;;;;;;15.68;100.00;101252.53;5093020;28;20383;-70
2021/04/18 12:13:14;;;;;;;;;;;;;;;15.17;100.00;101248.22;5092896;28;19924;-70
2021/04/18 12:15:40;;;;;;;;;;;;;;;14.98;100.00;101244.44;5093083;28;20310;-70
2021/04/18 12:18:06;;;;;;;;;;;;;;;15.41;100.00;101239.59;5092840;28;19968;-71
2021/04/18 12:20:31;;;;;;;;;;;;;;;15.95;100.00;101236.41;5092827;28;19924;-70
2021/04/18 12:22:57;;;;;;;;;;;;;;;17.13;100.00;101223.91;5090349;28;20401;-70
2021/04/18 12:25:23;;;;;;;;;;;;;;;18.29;100.00;101227.56;5084930;28;20448;-71
2021/04/18 12:27:49;;;;;;;;;;;;;;;17.79;100.00;101229.97;5092992;28;20411;-71
2021/04/18 12:30:16;;;;;;;;;;;;;;;17.33;100.00;101231.97;5094700;28;19924;-70
2021/04/18 12:32:45;;;;;;;;;;;;;;;16.59;100.00;101231.13;5093228;28;20247;-72
2021/04/18 12:35:11;;;;;;;;;;;;;;;15.90;100.00;101228.66;5093099;28;20023;-71
2021/04/18 12:37:37;;;;;;;;;;;;;;;15.81;100.00;101237.75;5092444;28;19924;-72